createdAt,value
2018-03-11T00:03:30.908Z,36.90
2018-03-11T00:05:59.252Z,32.65
2018-03-11T00:08:26.846Z,33.40
2018-03-11T00:10:54.451Z,31.40
2018-03-11T00:13:22.760Z,36.47
2018-03-11T00:15:51.435Z,30.67
2018-03-11T00:18:19.751Z,32.08
2018-03-11T00:20:47.322Z,31.20
2018-03-11T00:23:15.108Z,30.60
2018-03-11T00:25:42.711Z,36.55
2018-03-11T00:28:10.918Z,35.53
2018-03-11T00:30:39.480Z,30.47
2018-03-11T00:33:07.000Z,31.77
2018-03-11T00:35:34.899Z,34.30
2018-03-11T00:38:02.434Z,33.27
2018-03-11T00:40:30.208Z,36.70
2018-03-11T00:42:58.554Z,33.70
2018-03-11T00:45:26.155Z,34.43
2018-03-11T00:47:53.838Z,33.75
2018-03-11T00:50:21.394Z,33.33
2018-03-11T00:52:50.674Z,33.45
2018-03-11T00:55:18.968Z,30.63
2018-03-11T00:57:47.410Z,29.00
2018-03-11T01:00:15.320Z,32.10
2018-03-11T01:02:43.522Z,32.97
2018-03-11T01:05:11.963Z,35.83
2018-03-11T01:07:39.510Z,30.43
2018-03-11T01:10:07.060Z,32.93
2018-03-11T01:12:35.264Z,28.07
2018-03-11T01:15:02.857Z,34.00
2018-03-11T01:17:30.871Z,30.77
2018-03-11T01:19:59.466Z,30.97
2018-03-11T01:22:26.988Z,34.93
2018-03-11T01:24:54.843Z,34.74
2018-03-11T01:27:22.827Z,33.20
2018-03-11T01:29:53.585Z,34.50
2018-03-11T01:32:21.624Z,35.13
2018-03-11T01:34:52.659Z,36.25
2018-03-11T01:37:20.421Z,35.13
2018-03-11T01:39:47.987Z,35.07
2018-03-11T01:42:15.543Z,29.93
2018-03-11T01:44:43.268Z,32.40
2018-03-11T01:47:11.695Z,34.07
2018-03-11T01:49:40.100Z,37.30
2018-03-11T01:52:08.424Z,37.60
2018-03-11T01:54:36.771Z,33.42
2018-03-11T01:57:04.372Z,35.45
2018-03-11T01:59:32.561Z,31.92
2018-03-11T02:02:01.094Z,33.17
2018-03-11T02:04:28.800Z,31.13
2018-03-11T02:06:56.372Z,34.83
2018-03-11T02:09:23.939Z,32.40
2018-03-11T02:11:51.464Z,31.07
2018-03-11T02:14:20.092Z,35.77
2018-03-11T02:16:47.620Z,34.73
2018-03-11T02:19:15.171Z,34.10
2018-03-11T02:21:42.694Z,28.23
2018-03-11T02:24:10.252Z,30.00
2018-03-11T02:26:37.771Z,30.00
2018-03-11T02:29:05.294Z,37.83
2018-03-11T02:31:32.861Z,39.27
2018-03-11T02:34:00.379Z,33.33
2018-03-11T02:36:27.943Z,33.33
2018-03-11T02:38:55.468Z,40.07
2018-03-11T02:41:23.043Z,36.80
2018-03-11T02:43:50.574Z,34.63
2018-03-11T02:46:18.128Z,32.93
2018-03-11T02:48:45.701Z,30.37
2018-03-11T02:51:13.257Z,27.77
2018-03-11T02:53:40.783Z,37.27
2018-03-11T02:56:08.305Z,31.60
2018-03-11T02:58:35.864Z,31.67
2018-03-11T03:01:03.372Z,31.73
2018-03-11T03:03:30.925Z,28.03
2018-03-11T03:05:58.456Z,31.77
2018-03-11T03:08:26.007Z,34.17
2018-03-11T03:10:53.552Z,28.03
2018-03-11T03:13:21.124Z,36.43
2018-03-11T03:15:48.652Z,26.63
2018-03-11T03:18:16.222Z,27.57
2018-03-11T03:20:43.784Z,26.63
2018-03-11T03:23:11.310Z,30.60
2018-03-11T03:25:38.867Z,26.77
2018-03-11T03:28:06.394Z,26.80
2018-03-11T03:30:33.951Z,31.00
2018-03-11T03:33:01.488Z,32.43
2018-03-11T03:35:29.044Z,30.60
2018-03-11T03:37:56.611Z,30.93
2018-03-11T03:40:24.156Z,31.63
2018-03-11T03:42:51.673Z,34.40
2018-03-11T03:45:19.227Z,31.07
2018-03-11T03:47:46.772Z,36.93
2018-03-11T03:50:14.404Z,31.37
2018-03-11T03:52:41.955Z,29.77
2018-03-11T03:55:09.494Z,29.03
2018-03-11T03:57:37.061Z,29.53
2018-03-11T04:00:04.622Z,33.70
2018-03-11T04:02:32.208Z,39.07
2018-03-11T04:04:59.782Z,28.17
2018-03-11T04:07:27.334Z,25.35
2018-03-11T04:09:54.867Z,27.83
2018-03-11T04:12:23.251Z,27.83
2018-03-11T04:14:50.779Z,31.60
2018-03-11T04:17:18.302Z,28.53
2018-03-11T04:19:45.859Z,27.00
2018-03-11T04:22:13.388Z,26.07
2018-03-11T04:24:40.945Z,27.33
2018-03-11T04:27:08.494Z,25.30
2018-03-11T04:29:36.082Z,24.30
2018-03-11T04:32:03.628Z,28.73
2018-03-11T04:34:31.207Z,22.90
2018-03-11T04:36:58.796Z,25.00
2018-03-11T04:39:26.376Z,24.67
2018-03-11T04:41:54.646Z,25.55
2018-03-11T04:44:22.163Z,29.07
2018-03-11T04:46:49.740Z,29.00
2018-03-11T04:49:17.263Z,32.70
2018-03-11T04:51:44.908Z,29.20
2018-03-11T04:54:12.435Z,38.07
2018-03-11T04:56:40.319Z,27.10
2018-03-11T04:59:08.110Z,22.55
2018-03-11T05:01:35.922Z,25.63
2018-03-11T05:04:03.443Z,26.50
2018-03-11T05:06:31.007Z,28.50
2018-03-11T05:08:58.536Z,25.55
2018-03-11T05:11:26.108Z,34.23
2018-03-11T05:13:53.642Z,33.10
2018-03-11T05:16:21.156Z,37.30
2018-03-11T05:18:48.719Z,28.95
2018-03-11T05:21:16.297Z,22.00
2018-03-11T05:23:43.861Z,24.90
2018-03-11T05:26:11.394Z,22.33
2018-03-11T05:28:38.959Z,26.73
2018-03-11T05:31:06.499Z,23.07
2018-03-11T05:33:34.131Z,24.03
2018-03-11T05:36:01.662Z,19.98
2018-03-11T05:38:29.224Z,21.93
2018-03-11T05:40:56.742Z,24.13
2018-03-11T05:43:24.911Z,29.42
2018-03-11T05:45:52.429Z,25.00
2018-03-11T05:48:19.965Z,24.57
2018-03-11T05:50:47.542Z,22.63
2018-03-11T05:53:15.074Z,25.83
2018-03-11T05:55:42.652Z,26.50
2018-03-11T05:58:10.176Z,30.65
2018-03-11T06:00:37.755Z,27.60
2018-03-11T06:03:05.365Z,32.35
2018-03-11T06:05:32.961Z,24.93
2018-03-11T06:08:00.505Z,27.33
2018-03-11T06:10:28.095Z,31.33
2018-03-11T06:12:55.610Z,33.80
2018-03-11T06:15:23.160Z,29.23
2018-03-11T06:17:50.722Z,23.97
2018-03-11T06:20:18.248Z,24.07
2018-03-11T06:22:45.822Z,32.60
2018-03-11T06:25:13.353Z,24.13
2018-03-11T06:27:40.909Z,26.93
2018-03-11T06:30:08.454Z,25.03
2018-03-11T06:32:36.016Z,27.43
2018-03-11T06:35:03.556Z,26.10
2018-03-11T06:37:31.120Z,23.23
2018-03-11T06:39:58.633Z,26.00
2018-03-11T06:42:26.164Z,24.03
2018-03-11T06:44:53.737Z,22.50
2018-03-11T06:47:21.255Z,23.23
2018-03-11T06:49:48.815Z,23.37
2018-03-11T06:52:16.420Z,23.37
2018-03-11T06:54:43.993Z,21.77
2018-03-11T06:57:11.509Z,22.37
2018-03-11T06:59:39.091Z,22.60
2018-03-11T07:02:09.547Z,21.83
2018-03-11T07:04:37.207Z,25.73
2018-03-11T07:07:06.962Z,28.80
2018-03-11T07:09:34.701Z,28.40
2018-03-11T07:12:02.233Z,27.07
2018-03-11T07:14:29.770Z,19.77
2018-03-11T07:16:57.328Z,23.50
2018-03-11T07:19:25.294Z,32.17
2018-03-11T07:21:52.846Z,21.90
2018-03-11T07:24:20.363Z,20.80
2018-03-11T07:26:47.916Z,22.63
2018-03-11T07:29:15.463Z,27.20
2018-03-11T07:31:43.018Z,20.60
2018-03-11T07:34:10.541Z,22.20
2018-03-11T07:36:38.099Z,32.17
2018-03-11T07:39:05.622Z,24.20
2018-03-11T07:41:33.186Z,22.80
2018-03-11T07:44:00.699Z,22.67
2018-03-11T07:46:28.230Z,23.97
2018-03-11T07:48:55.782Z,26.00
2018-03-11T07:51:23.322Z,23.13
2018-03-11T07:53:50.884Z,24.93
2018-03-11T07:56:18.404Z,21.17
2018-03-11T07:58:45.981Z,19.77
2018-03-11T08:01:13.529Z,17.67
2018-03-11T08:03:41.095Z,14.95
2018-03-11T08:06:08.608Z,13.93
2018-03-11T08:08:36.350Z,12.53
2018-03-11T08:11:04.047Z,12.20
2018-03-11T08:13:31.567Z,12.23
2018-03-11T08:15:59.148Z,11.43
2018-03-11T08:18:26.674Z,11.60
2018-03-11T08:20:54.263Z,11.40
2018-03-11T08:23:21.817Z,11.20
2018-03-11T08:25:49.425Z,11.53
2018-03-11T08:28:16.923Z,10.47
2018-03-11T08:30:44.508Z,10.93
2018-03-11T08:33:12.033Z,10.10
2018-03-11T08:35:39.789Z,7.80
2018-03-11T08:38:07.448Z,5.37
2018-03-11T08:40:34.996Z,5.47
2018-03-11T08:43:02.537Z,3.90
2018-03-11T08:45:30.079Z,4.00
2018-03-11T08:47:57.605Z,4.07
2018-03-11T08:50:25.605Z,3.90
2018-03-11T08:52:53.149Z,4.10
2018-03-11T08:55:20.714Z,3.53
2018-03-11T08:57:48.248Z,3.83
2018-03-11T09:00:15.803Z,3.83
2018-03-11T09:02:43.329Z,3.60
2018-03-11T09:05:10.896Z,3.78
2018-03-11T09:07:38.411Z,3.70
2018-03-11T09:10:05.976Z,3.77
2018-03-11T09:12:33.509Z,3.45
2018-03-11T09:15:01.076Z,3.23
2018-03-11T09:17:28.628Z,3.40
2018-03-11T09:19:56.211Z,2.90
2018-03-11T09:22:23.732Z,3.37
2018-03-11T09:24:51.255Z,2.90
2018-03-11T09:27:19.116Z,2.57
2018-03-11T09:29:46.626Z,3.20
2018-03-11T09:32:14.180Z,3.00
2018-03-11T09:34:41.697Z,2.87
2018-03-11T09:37:09.272Z,2.70
2018-03-11T09:39:36.893Z,2.87
2018-03-11T09:42:04.440Z,2.73
2018-03-11T09:44:31.955Z,2.97
2018-03-11T09:46:59.510Z,3.00
2018-03-11T09:49:27.144Z,2.55
2018-03-11T09:51:54.692Z,2.63
2018-03-11T09:54:22.242Z,2.90
2018-03-11T09:56:49.784Z,2.70
2018-03-11T09:59:17.335Z,3.00
2018-03-11T10:01:44.850Z,2.73
2018-03-11T10:04:12.404Z,2.50
2018-03-11T10:06:39.921Z,2.27
2018-03-11T10:09:07.481Z,2.67
2018-03-11T10:11:35.006Z,2.40
2018-03-11T10:14:02.610Z,2.17
2018-03-11T10:16:31.244Z,2.83
2018-03-11T10:18:59.013Z,2.90
2018-03-11T10:21:29.477Z,2.50
2018-03-11T10:23:57.217Z,2.43
2018-03-11T10:26:28.242Z,2.53
2018-03-11T10:28:59.548Z,2.80
2018-03-11T10:31:27.423Z,2.28
2018-03-11T10:33:54.975Z,2.80
2018-03-11T10:36:22.536Z,2.37
2018-03-11T10:38:50.072Z,2.83
2018-03-11T10:41:17.656Z,2.87
2018-03-11T10:43:45.211Z,3.07
2018-03-11T10:46:12.768Z,2.63
2018-03-11T10:48:40.916Z,3.07
2018-03-11T10:51:08.564Z,3.40
2018-03-11T10:53:36.558Z,3.23
2018-03-11T10:56:04.280Z,3.37
2018-03-11T10:58:31.796Z,2.90
2018-03-11T11:01:17.690Z,3.27
2018-03-11T11:03:50.925Z,2.40
2018-03-11T11:06:19.581Z,3.13
2018-03-11T11:08:47.127Z,3.97
2018-03-11T11:11:15.542Z,3.40
2018-03-11T11:13:43.079Z,3.70
2018-03-11T11:16:10.969Z,3.63
2018-03-11T11:18:39.215Z,5.12
2018-03-11T11:21:06.921Z,10.17
2018-03-11T11:23:34.501Z,11.97
2018-03-11T11:26:02.055Z,10.85
2018-03-11T11:28:30.550Z,5.37
2018-03-11T11:30:58.109Z,6.10
2018-03-11T11:33:25.899Z,5.55
2018-03-11T11:35:55.189Z,5.27
2018-03-11T11:38:24.699Z,7.60
2018-03-11T11:40:53.000Z,8.27
2018-03-11T11:43:21.166Z,8.37
2018-03-11T11:45:49.480Z,8.53
2018-03-11T11:48:17.260Z,10.32
2018-03-11T11:50:45.361Z,8.90
2018-03-11T11:53:12.902Z,7.67
2018-03-11T11:55:40.455Z,6.23
2018-03-11T11:58:08.154Z,6.25
2018-03-11T12:00:36.337Z,5.82
2018-03-11T12:03:03.863Z,5.40
2018-03-11T12:05:31.481Z,4.63
2018-03-11T12:07:59.066Z,3.63
2018-03-11T12:10:28.269Z,3.47
2018-03-11T12:12:57.189Z,3.00
2018-03-11T12:15:24.712Z,2.80
2018-03-11T12:17:55.238Z,2.60
2018-03-11T12:20:23.400Z,2.83
2018-03-11T12:22:52.385Z,2.90
2018-03-11T12:25:21.192Z,2.30
2018-03-11T12:27:49.584Z,2.03
2018-03-11T12:30:17.101Z,2.00
2018-03-11T12:32:44.677Z,2.35
2018-03-11T12:35:13.020Z,2.40
2018-03-11T12:37:41.157Z,2.60
2018-03-11T12:40:09.122Z,2.10
2018-03-11T12:42:37.060Z,2.20
2018-03-11T12:45:08.291Z,2.37
2018-03-11T12:47:36.048Z,2.17
2018-03-11T12:50:04.781Z,2.07
2018-03-11T12:52:32.463Z,2.20
2018-03-11T12:54:59.983Z,2.40
2018-03-11T12:57:27.536Z,2.05
2018-03-11T12:59:55.064Z,2.80
2018-03-11T13:02:22.687Z,3.47
2018-03-11T13:04:50.213Z,3.93
2018-03-11T13:07:17.774Z,3.60
2018-03-11T13:09:45.322Z,4.00
2018-03-11T13:12:12.867Z,3.53
2018-03-11T13:14:40.429Z,3.10
2018-03-11T13:17:08.051Z,3.20
2018-03-11T13:19:35.576Z,2.72
2018-03-11T13:22:03.132Z,2.37
2018-03-11T13:24:30.782Z,2.28
2018-03-11T13:26:58.351Z,2.70
2018-03-11T13:29:25.920Z,2.57
2018-03-11T13:31:53.491Z,2.37
2018-03-11T13:34:27.586Z,2.63
2018-03-11T13:36:56.743Z,2.10
2018-03-11T13:39:36.144Z,6.23
2018-03-11T13:42:03.701Z,3.07
2018-03-11T13:44:31.227Z,2.23
2018-03-11T13:47:08.776Z,2.40
2018-03-11T13:49:36.923Z,2.03
2018-03-11T13:52:16.470Z,2.60
2018-03-11T13:54:45.766Z,2.10
2018-03-11T14:00:25.742Z,2.30
2018-03-11T14:02:53.633Z,1.80
2018-03-11T14:05:21.973Z,1.70
2018-03-11T14:07:54.489Z,1.98
2018-03-11T14:10:22.288Z,2.45
2018-03-11T14:12:49.908Z,1.93
2018-03-11T14:15:18.533Z,1.83
2018-03-11T14:17:46.115Z,1.50
2018-03-11T14:20:16.939Z,1.67
2018-03-11T14:22:48.761Z,2.30
2018-03-11T14:25:16.494Z,1.77
2018-03-11T14:27:46.918Z,1.40
2018-03-11T14:30:15.333Z,1.70
2018-03-11T14:32:42.858Z,2.10
2018-03-11T14:35:11.116Z,1.80
2018-03-11T14:37:38.664Z,1.80
2018-03-11T14:40:06.176Z,1.80
2018-03-11T14:42:33.964Z,1.50
2018-03-11T14:45:04.843Z,1.23
2018-03-11T14:47:32.578Z,1.70
2018-03-11T14:50:02.431Z,1.60
2018-03-11T14:52:30.443Z,1.43
2018-03-11T14:54:58.079Z,1.85
2018-03-11T14:57:27.867Z,1.62
2018-03-11T14:59:58.396Z,1.40
2018-03-11T15:02:26.026Z,1.20
2018-03-11T15:04:56.225Z,1.47
2018-03-11T15:07:25.970Z,1.80
2018-03-11T15:09:53.628Z,1.53
2018-03-11T15:12:24.651Z,1.55
2018-03-11T15:14:52.360Z,1.50
2018-03-11T15:17:20.953Z,1.85
2018-03-11T15:19:49.877Z,1.67
2018-03-11T15:22:20.312Z,2.13
2018-03-11T15:24:47.876Z,2.17
2018-03-11T15:27:17.920Z,1.93
2018-03-11T15:29:47.109Z,2.57
2018-03-11T15:32:14.886Z,1.90
2018-03-11T15:34:45.505Z,2.57
2018-03-11T15:37:16.299Z,2.78
2018-03-11T15:39:43.922Z,2.40
2018-03-11T15:42:12.412Z,2.20
2018-03-11T15:44:41.312Z,2.57
2018-03-11T15:47:09.061Z,2.65
2018-03-11T15:49:36.947Z,2.53
2018-03-11T15:52:05.615Z,2.40
2018-03-11T15:54:34.913Z,2.10
2018-03-11T15:57:02.990Z,2.12
2018-03-11T15:59:36.244Z,1.90
2018-03-11T16:02:04.959Z,2.12
2018-03-11T16:04:32.595Z,1.90
2018-03-11T16:07:03.476Z,2.25
2018-03-11T16:09:33.986Z,2.33
2018-03-11T16:12:01.665Z,2.50
2018-03-11T16:14:32.490Z,3.03
2018-03-11T16:17:03.074Z,2.57
2018-03-11T16:19:30.815Z,2.42
2018-03-11T16:21:58.331Z,2.10
2018-03-11T16:24:28.558Z,2.60
2018-03-11T16:26:53.403Z,2.30
2018-03-11T16:29:21.002Z,2.77
2018-03-11T16:31:48.550Z,2.90
2018-03-11T16:34:16.116Z,3.20
2018-03-11T16:36:43.638Z,2.53
2018-03-11T16:39:11.202Z,3.20
2018-03-11T16:41:38.730Z,2.97
2018-03-11T16:44:06.294Z,3.00
2018-03-11T16:46:33.815Z,2.80
2018-03-11T16:49:01.375Z,7.80
2018-03-11T16:51:28.990Z,10.47
2018-03-11T16:53:56.977Z,8.75
2018-03-11T16:56:26.199Z,17.93
2018-03-11T16:58:57.269Z,11.60
2018-03-11T17:01:28.876Z,4.60
2018-03-11T17:03:56.606Z,7.10
2018-03-11T17:06:24.315Z,4.10
2018-03-11T17:08:54.940Z,4.50
2018-03-11T17:11:28.344Z,4.13
2018-03-11T17:14:04.899Z,5.43
2018-03-11T17:16:33.088Z,4.40
2018-03-11T17:19:02.663Z,4.55
2018-03-11T17:21:30.831Z,5.70
2018-03-11T17:23:59.758Z,4.37
2018-03-11T17:26:27.551Z,5.10
2018-03-11T17:28:55.080Z,4.70
2018-03-11T17:31:22.626Z,5.93
2018-03-11T17:33:50.165Z,5.90
2018-03-11T17:36:17.719Z,7.70
2018-03-11T17:38:47.083Z,9.75
2018-03-11T17:41:14.684Z,11.63
2018-03-11T17:43:43.573Z,10.87
2018-03-11T17:46:11.184Z,12.73
2018-03-11T17:48:39.098Z,14.67
2018-03-11T17:51:06.691Z,15.67
2018-03-11T17:53:34.232Z,16.23
2018-03-11T17:56:02.312Z,18.10
2018-03-11T17:58:29.863Z,17.90
2018-03-11T18:00:57.422Z,15.73
2018-03-11T18:03:24.986Z,16.13
2018-03-11T18:05:52.520Z,16.23
2018-03-11T18:08:21.220Z,19.67
2018-03-11T18:10:48.749Z,18.55
2018-03-11T18:13:16.327Z,16.33
2018-03-11T18:15:43.905Z,17.30
2018-03-11T18:18:11.427Z,21.13
2018-03-11T18:20:39.005Z,20.73
2018-03-11T18:23:07.555Z,22.35
2018-03-11T18:25:35.140Z,20.37
2018-03-11T18:28:02.673Z,22.43
2018-03-11T18:30:30.246Z,21.00
2018-03-11T18:32:57.780Z,19.57
2018-03-11T18:35:25.511Z,21.13
2018-03-11T18:37:53.050Z,19.97
2018-03-11T18:40:20.612Z,24.20
2018-03-11T18:42:48.148Z,24.20
2018-03-11T18:45:15.728Z,19.92
2018-03-11T18:47:43.253Z,23.62
2018-03-11T18:50:10.813Z,29.00
2018-03-11T18:52:39.266Z,25.10
2018-03-11T18:55:06.888Z,21.93
2018-03-11T18:57:34.426Z,18.98
2018-03-11T19:00:03.116Z,14.50
2018-03-11T19:02:30.667Z,14.60
2018-03-11T19:04:58.220Z,12.93
2018-03-11T19:07:25.753Z,14.73
2018-03-11T19:09:53.312Z,14.87
2018-03-11T19:12:20.865Z,15.30
2018-03-11T19:14:48.423Z,22.43
2018-03-11T19:17:15.960Z,20.07
2018-03-11T19:19:43.508Z,23.70
2018-03-11T19:22:11.056Z,22.45
2018-03-11T19:24:38.636Z,26.23
2018-03-11T19:27:06.218Z,26.80
2018-03-11T19:29:33.744Z,17.27
2018-03-11T19:32:01.292Z,17.87
2018-03-11T19:34:28.910Z,19.00
2018-03-11T19:36:56.420Z,17.97
2018-03-11T19:39:23.981Z,21.95
2018-03-11T19:41:51.812Z,21.27
2018-03-11T19:44:19.641Z,26.97
2018-03-11T19:46:49.591Z,24.33
2018-03-11T19:49:17.204Z,20.27
2018-03-11T19:51:44.784Z,23.27
2018-03-11T19:54:12.311Z,24.10
2018-03-11T19:56:39.873Z,20.43
2018-03-11T19:59:07.524Z,20.52
2018-03-11T20:01:35.573Z,19.93
2018-03-11T20:04:03.265Z,19.40
2018-03-11T20:06:30.864Z,17.83
2018-03-11T20:08:58.411Z,17.93
2018-03-11T20:11:26.206Z,18.43
2018-03-11T20:13:53.789Z,15.67
2018-03-11T20:16:21.367Z,14.30
2018-03-11T20:18:48.895Z,16.27
2018-03-11T20:21:16.441Z,17.43
2018-03-11T20:23:45.241Z,15.60
2018-03-11T20:26:13.228Z,16.10
2018-03-11T20:28:41.119Z,15.10
2018-03-11T20:31:08.663Z,13.47
2018-03-11T20:33:36.231Z,14.17
2018-03-11T20:36:03.787Z,11.57
2018-03-11T20:38:31.427Z,12.50
2018-03-11T20:40:58.985Z,13.90
2018-03-11T20:43:26.608Z,10.47
2018-03-11T20:45:54.140Z,11.30
2018-03-11T20:48:21.749Z,9.63
2018-03-11T20:50:49.273Z,10.53
2018-03-11T20:53:16.847Z,14.40
2018-03-11T20:55:44.425Z,15.67
2018-03-11T20:58:12.012Z,17.30
2018-03-11T21:00:39.544Z,11.63
2018-03-11T21:03:07.115Z,10.13
2018-03-11T21:05:34.640Z,11.07
2018-03-11T21:08:02.213Z,14.10
2018-03-11T21:10:29.744Z,14.63
2018-03-11T21:12:57.426Z,11.67
2018-03-11T21:15:24.915Z,11.90
2018-03-11T21:17:52.488Z,10.33
2018-03-11T21:20:20.019Z,13.65
2018-03-11T21:22:47.597Z,15.87
2018-03-11T21:25:15.130Z,18.97
2018-03-11T21:27:42.690Z,19.33
2018-03-11T21:30:10.228Z,21.35
2018-03-11T21:32:37.842Z,20.43
2018-03-11T21:35:05.366Z,20.23
2018-03-11T21:37:33.458Z,21.67
2018-03-11T21:40:00.984Z,25.80
2018-03-11T21:42:28.540Z,34.03
2018-03-11T21:44:56.068Z,23.47
2018-03-11T21:47:23.628Z,22.83
2018-03-11T21:49:51.164Z,33.93
2018-03-11T21:52:18.719Z,23.13
2018-03-11T21:54:46.296Z,25.43
2018-03-11T21:57:13.875Z,26.27
2018-03-11T21:59:41.416Z,22.70
2018-03-11T22:02:08.975Z,22.53
2018-03-11T22:04:39.415Z,19.73
2018-03-11T22:07:08.614Z,25.07
2018-03-11T22:09:37.133Z,25.43
2018-03-11T22:12:05.364Z,28.13
2018-03-11T22:14:35.940Z,21.52
2018-03-11T22:17:05.022Z,21.80
2018-03-11T22:19:34.657Z,24.37
2018-03-11T22:22:04.298Z,32.38
2018-03-11T22:24:33.583Z,31.77
2018-03-11T22:27:02.785Z,30.37
2018-03-11T22:29:31.005Z,32.10
2018-03-11T22:31:59.593Z,29.43
2018-03-11T22:34:29.848Z,28.10
2018-03-11T22:36:59.218Z,35.00
2018-03-11T22:39:28.339Z,32.57
2018-03-11T22:41:57.550Z,22.27
2018-03-11T22:44:27.632Z,22.00
2018-03-11T22:46:57.528Z,17.53
2018-03-11T22:49:27.023Z,17.80
2018-03-11T22:51:57.062Z,20.10
2018-03-11T22:54:25.482Z,19.53
2018-03-11T22:56:55.290Z,22.93
2018-03-11T22:59:23.360Z,23.73
2018-03-11T23:01:51.790Z,40.43
2018-03-11T23:04:20.425Z,29.20
2018-03-11T23:06:50.749Z,24.70
2018-03-11T23:09:21.021Z,22.40
2018-03-11T23:11:48.896Z,26.65
2018-03-11T23:14:16.468Z,27.57
2018-03-11T23:16:43.984Z,42.07
2018-03-11T23:19:24.030Z,25.97
2018-03-11T23:21:52.464Z,24.93
2018-03-11T23:24:20.455Z,27.07
2018-03-11T23:26:49.289Z,21.85
2018-03-11T23:29:19.004Z,28.60
2018-03-11T23:31:46.867Z,30.07
2018-03-11T23:34:15.187Z,36.17
2018-03-11T23:36:43.060Z,29.93
2018-03-11T23:39:10.899Z,30.55
2018-03-11T23:41:42.584Z,29.77
2018-03-11T23:44:11.423Z,27.67
2018-03-11T23:46:39.136Z,37.13
2018-03-11T23:49:07.667Z,36.53
2018-03-11T23:51:35.815Z,32.67
2018-03-11T23:54:04.474Z,35.60
2018-03-11T23:56:36.901Z,32.97
2018-03-11T23:59:07.885Z,35.45
